AEE322 LGAV-LIEO
Flight info
| Callsign | AEE322 |
|---|---|
| Flight time | 2h 3m |
| Altitude | 34000 |
| Route | LGAV/21L N0443F340 DCT KOR UN604 ARA DCT DINOB DCT CRN DCT AGNIS DCT ROXAN DCT ATNET DCT LIEO/05 |
| Aircraft | A320/M-SDE3/L |
Departure
| Time | 2026-05-06 17:14 |
|---|---|
| Airport | Athens Eleftherios Venizelos International Airport (LGAV) |
Arrival
| Time | 2026-05-06 19:17 |
|---|---|
| Airport | Olbia Costa Smeralda Airport (LIEO) |
| Time | Latitude | Longitude | Altitude | Speed | Heading |
|---|---|---|---|---|---|
| 2026-05-06 16:53 | 37.93694 | 23.94924 | 301 ft | 0 kts | 306° |
| 2026-05-06 17:00 | 37.93693 | 23.94926 | 301 ft | 2 kts | 306° |
| 2026-05-06 17:00 | 37.93682 | 23.94944 | 302 ft | 3 kts | 306° |
| 2026-05-06 17:00 | 37.93672 | 23.94962 | 301 ft | 2 kts | 306° |
| 2026-05-06 17:00 | 37.93662 | 23.94980 | 302 ft | 2 kts | 314° |
| 2026-05-06 17:01 | 37.93648 | 23.94989 | 300 ft | 2 kts | 23° |
| 2026-05-06 17:01 | 37.93645 | 23.94988 | 300 ft | 0 kts | 32° |
| 2026-05-06 17:05 | 37.93646 | 23.94988 | 300 ft | 1 kts | 33° |
| 2026-05-06 17:05 | 37.93664 | 23.95011 | 300 ft | 7 kts | 45° |
| 2026-05-06 17:06 | 37.93716 | 23.95073 | 300 ft | 13 kts | 48° |
| 2026-05-06 17:06 | 37.93703 | 23.95154 | 300 ft | 9 kts | 97° |
| 2026-05-06 17:06 | 37.93741 | 23.95220 | 300 ft | 10 kts | 39° |
| 2026-05-06 17:06 | 37.93801 | 23.95280 | 299 ft | 12 kts | 39° |
| 2026-05-06 17:07 | 37.93871 | 23.95346 | 300 ft | 13 kts | 37° |
| 2026-05-06 17:07 | 37.93947 | 23.95421 | 301 ft | 15 kts | 38° |
| 2026-05-06 17:07 | 37.94033 | 23.95501 | 299 ft | 16 kts | 38° |
| 2026-05-06 17:07 | 37.94100 | 23.95611 | 299 ft | 15 kts | 84° |
| 2026-05-06 17:08 | 37.94126 | 23.95728 | 299 ft | 16 kts | 40° |
| 2026-05-06 17:08 | 37.94216 | 23.95816 | 300 ft | 17 kts | 37° |
| 2026-05-06 17:08 | 37.94313 | 23.95909 | 300 ft | 18 kts | 36° |
| 2026-05-06 17:08 | 37.94416 | 23.96007 | 298 ft | 19 kts | 38° |
| 2026-05-06 17:09 | 37.94522 | 23.96112 | 302 ft | 20 kts | 39° |
| 2026-05-06 17:09 | 37.94636 | 23.96220 | 299 ft | 21 kts | 36° |
| 2026-05-06 17:09 | 37.94758 | 23.96331 | 301 ft | 22 kts | 36° |
| 2026-05-06 17:09 | 37.94884 | 23.96451 | 302 ft | 23 kts | 37° |
| 2026-05-06 17:10 | 37.95008 | 23.96569 | 302 ft | 21 kts | 37° |
| 2026-05-06 17:10 | 37.95130 | 23.96685 | 304 ft | 23 kts | 37° |
| 2026-05-06 17:10 | 37.95260 | 23.96806 | 305 ft | 24 kts | 36° |
| 2026-05-06 17:10 | 37.95356 | 23.96902 | 303 ft | 11 kts | 44° |
| 2026-05-06 17:11 | 37.95386 | 23.96977 | 304 ft | 9 kts | 95° |
| 2026-05-06 17:11 | 37.95348 | 23.97018 | 306 ft | 7 kts | 167° |
| 2026-05-06 17:11 | 37.95310 | 23.97022 | 308 ft | 4 kts | 175° |
| 2026-05-06 17:11 | 37.95288 | 23.97024 | 308 ft | 2 kts | 175° |
| 2026-05-06 17:12 | 37.95259 | 23.97027 | 309 ft | 7 kts | 175° |
| 2026-05-06 17:12 | 37.95190 | 23.97021 | 310 ft | 13 kts | 196° |
| 2026-05-06 17:12 | 37.95115 | 23.96951 | 311 ft | 0 kts | 216° |
| 2026-05-06 17:13 | 37.95068 | 23.96907 | 309 ft | 28 kts | 217° |
| 2026-05-06 17:13 | 37.94725 | 23.96579 | 301 ft | 92 kts | 216° |
| 2026-05-06 17:13 | 37.94073 | 23.95960 | 286 ft | 140 kts | 217° |
| 2026-05-06 17:14 | 37.93206 | 23.95134 | 469 ft | 160 kts | 216° |
| 2026-05-06 17:14 | 37.92257 | 23.94446 | 1100 ft | 158 kts | 208° |
| 2026-05-06 17:14 | 37.91292 | 23.93806 | 1719 ft | 154 kts | 207° |
| 2026-05-06 17:14 | 37.90325 | 23.93152 | 2119 ft | 167 kts | 208° |
| 2026-05-06 17:15 | 37.89233 | 23.92415 | 2359 ft | 188 kts | 207° |
| 2026-05-06 17:15 | 37.88013 | 23.91597 | 2594 ft | 208 kts | 208° |
| 2026-05-06 17:15 | 37.86669 | 23.90684 | 2840 ft | 232 kts | 208° |
| 2026-05-06 17:15 | 37.85208 | 23.89707 | 3458 ft | 241 kts | 208° |
| 2026-05-06 17:16 | 37.83705 | 23.88703 | 4159 ft | 248 kts | 208° |
| 2026-05-06 17:16 | 37.82164 | 23.87653 | 4912 ft | 253 kts | 210° |
| 2026-05-06 17:16 | 37.80617 | 23.86601 | 5800 ft | 253 kts | 210° |
| 2026-05-06 17:16 | 37.79066 | 23.85538 | 6462 ft | 261 kts | 210° |
| 2026-05-06 17:17 | 37.77461 | 23.84325 | 7047 ft | 271 kts | 222° |
| 2026-05-06 17:17 | 37.76290 | 23.82451 | 7673 ft | 275 kts | 247° |
| 2026-05-06 17:17 | 37.75862 | 23.80144 | 8379 ft | 277 kts | 271° |
| 2026-05-06 17:17 | 37.76268 | 23.77753 | 9036 ft | 282 kts | 291° |
| 2026-05-06 17:18 | 37.76984 | 23.75426 | 9783 ft | 286 kts | 292° |
| 2026-05-06 17:18 | 37.77724 | 23.73084 | 10477 ft | 288 kts | 292° |
| 2026-05-06 17:18 | 37.78496 | 23.70651 | 10737 ft | 309 kts | 292° |
| 2026-05-06 17:18 | 37.79314 | 23.68033 | 10888 ft | 330 kts | 292° |
| 2026-05-06 17:19 | 37.80162 | 23.65288 | 11357 ft | 339 kts | 291° |
| 2026-05-06 17:19 | 37.81020 | 23.62498 | 11978 ft | 342 kts | 292° |
| 2026-05-06 17:19 | 37.81887 | 23.59682 | 12622 ft | 345 kts | 292° |
| 2026-05-06 17:19 | 37.82758 | 23.56848 | 13262 ft | 347 kts | 292° |
| 2026-05-06 17:20 | 37.83636 | 23.53991 | 13901 ft | 350 kts | 292° |
| 2026-05-06 17:20 | 37.84522 | 23.51112 | 14463 ft | 352 kts | 292° |
| 2026-05-06 17:20 | 37.85410 | 23.48222 | 15030 ft | 354 kts | 292° |
| 2026-05-06 17:20 | 37.86302 | 23.45313 | 15599 ft | 355 kts | 292° |
| 2026-05-06 17:21 | 37.87195 | 23.42393 | 16146 ft | 357 kts | 292° |
| 2026-05-06 17:21 | 37.88097 | 23.39446 | 16677 ft | 360 kts | 292° |
| 2026-05-06 17:21 | 37.89003 | 23.36489 | 17229 ft | 362 kts | 292° |
| 2026-05-06 17:21 | 37.89914 | 23.33510 | 17789 ft | 364 kts | 292° |
| 2026-05-06 17:22 | 37.90827 | 23.30517 | 18353 ft | 365 kts | 292° |
| 2026-05-06 17:22 | 37.91747 | 23.27500 | 18837 ft | 368 kts | 292° |
| 2026-05-06 17:22 | 37.92670 | 23.24471 | 19325 ft | 370 kts | 292° |
| 2026-05-06 17:22 | 37.93600 | 23.21421 | 19798 ft | 373 kts | 292° |
| 2026-05-06 17:23 | 37.94537 | 23.18345 | 20271 ft | 375 kts | 292° |
| 2026-05-06 17:23 | 37.95466 | 23.15288 | 20696 ft | 378 kts | 292° |
| 2026-05-06 17:23 | 37.96425 | 23.12130 | 21109 ft | 380 kts | 292° |
| 2026-05-06 17:23 | 37.97364 | 23.09026 | 21549 ft | 383 kts | 292° |
| 2026-05-06 17:24 | 37.98318 | 23.05866 | 21962 ft | 386 kts | 292° |
| 2026-05-06 17:24 | 37.99279 | 23.02681 | 22392 ft | 388 kts | 292° |
| 2026-05-06 17:24 | 38.00244 | 22.99478 | 22823 ft | 390 kts | 292° |
| 2026-05-06 17:24 | 38.01215 | 22.96252 | 23251 ft | 393 kts | 292° |
| 2026-05-06 17:25 | 38.02191 | 22.93009 | 23670 ft | 395 kts | 292° |
| 2026-05-06 17:25 | 38.03177 | 22.89736 | 24029 ft | 397 kts | 292° |
| 2026-05-06 17:25 | 38.04163 | 22.86458 | 24382 ft | 399 kts | 291° |
| 2026-05-06 17:25 | 38.05155 | 22.83160 | 24752 ft | 401 kts | 291° |
| 2026-05-06 17:26 | 38.06150 | 22.79848 | 25104 ft | 402 kts | 291° |
| 2026-05-06 17:26 | 38.07144 | 22.76528 | 25441 ft | 404 kts | 291° |
| 2026-05-06 17:26 | 38.08146 | 22.73177 | 25763 ft | 406 kts | 291° |
| 2026-05-06 17:26 | 38.09152 | 22.69808 | 26103 ft | 408 kts | 291° |
| 2026-05-06 17:27 | 38.10158 | 22.66435 | 26431 ft | 410 kts | 291° |
| 2026-05-06 17:27 | 38.11170 | 22.63044 | 26771 ft | 412 kts | 291° |
| 2026-05-06 17:27 | 38.12183 | 22.59637 | 27107 ft | 413 kts | 291° |
| 2026-05-06 17:27 | 38.13197 | 22.56212 | 27435 ft | 415 kts | 291° |
| 2026-05-06 17:28 | 38.14201 | 22.52814 | 27773 ft | 417 kts | 291° |
| 2026-05-06 17:28 | 38.15224 | 22.49357 | 28106 ft | 419 kts | 291° |
| 2026-05-06 17:28 | 38.16253 | 22.45880 | 28440 ft | 421 kts | 291° |
| 2026-05-06 17:28 | 38.17286 | 22.42401 | 28827 ft | 421 kts | 291° |
| 2026-05-06 17:29 | 38.18318 | 22.38925 | 29316 ft | 419 kts | 291° |
| 2026-05-06 17:29 | 38.19339 | 22.35469 | 29798 ft | 418 kts | 290° |
| 2026-05-06 17:29 | 38.20355 | 22.32019 | 30258 ft | 416 kts | 290° |
| 2026-05-06 17:29 | 38.21368 | 22.28573 | 30666 ft | 415 kts | 290° |
| 2026-05-06 17:30 | 38.22372 | 22.25148 | 31078 ft | 413 kts | 290° |
| 2026-05-06 17:30 | 38.23375 | 22.21721 | 31490 ft | 412 kts | 290° |
| 2026-05-06 17:30 | 38.24372 | 22.18317 | 31894 ft | 410 kts | 290° |
| 2026-05-06 17:30 | 38.25365 | 22.14922 | 32313 ft | 409 kts | 290° |
| 2026-05-06 17:31 | 38.26360 | 22.11528 | 32723 ft | 408 kts | 290° |
| 2026-05-06 17:31 | 38.27015 | 22.09293 | 32971 ft | 408 kts | 290° |
| 2026-05-06 17:31 | 38.28005 | 22.05915 | 33368 ft | 407 kts | 290° |
| 2026-05-06 17:31 | 38.28988 | 22.02542 | 33761 ft | 405 kts | 290° |
| 2026-05-06 17:32 | 38.29965 | 21.99178 | 34047 ft | 405 kts | 290° |
| 2026-05-06 17:32 | 38.31940 | 21.92364 | 34105 ft | 415 kts | 290° |
| 2026-05-06 17:33 | 38.33940 | 21.85450 | 34104 ft | 417 kts | 290° |
| 2026-05-06 17:33 | 38.35944 | 21.78517 | 34098 ft | 417 kts | 290° |
| 2026-05-06 17:34 | 38.37936 | 21.71603 | 34104 ft | 418 kts | 290° |
| 2026-05-06 17:34 | 38.39936 | 21.64639 | 34104 ft | 418 kts | 290° |
| 2026-05-06 17:35 | 38.41940 | 21.57665 | 34106 ft | 418 kts | 290° |
| 2026-05-06 17:35 | 38.43933 | 21.50697 | 34104 ft | 418 kts | 290° |
| 2026-05-06 17:36 | 38.46612 | 21.41295 | 34117 ft | 418 kts | 290° |
| 2026-05-06 17:36 | 38.48590 | 21.34319 | 34117 ft | 418 kts | 290° |
| 2026-05-06 17:37 | 38.50553 | 21.27395 | 34116 ft | 417 kts | 290° |
| 2026-05-06 17:37 | 38.52525 | 21.20423 | 34114 ft | 417 kts | 290° |
| 2026-05-06 17:38 | 38.54491 | 21.13455 | 34118 ft | 417 kts | 290° |
| 2026-05-06 17:38 | 38.56459 | 21.06476 | 34111 ft | 417 kts | 290° |
| 2026-05-06 17:39 | 38.58421 | 20.99495 | 34109 ft | 418 kts | 289° |
| 2026-05-06 17:39 | 38.60368 | 20.92505 | 34110 ft | 418 kts | 289° |
| 2026-05-06 17:40 | 38.62320 | 20.85492 | 34112 ft | 418 kts | 289° |
| 2026-05-06 17:40 | 38.64273 | 20.78487 | 34110 ft | 418 kts | 289° |
| 2026-05-06 17:41 | 38.66224 | 20.71468 | 34110 ft | 418 kts | 289° |
| 2026-05-06 17:41 | 38.68170 | 20.64444 | 34110 ft | 419 kts | 289° |
| 2026-05-06 17:42 | 38.70096 | 20.57456 | 34113 ft | 419 kts | 289° |
| 2026-05-06 17:42 | 38.72034 | 20.50424 | 34114 ft | 418 kts | 289° |
| 2026-05-06 17:43 | 38.73962 | 20.43391 | 34122 ft | 418 kts | 290° |
| 2026-05-06 17:43 | 38.75883 | 20.36357 | 34123 ft | 418 kts | 290° |
| 2026-05-06 17:44 | 38.77801 | 20.29335 | 34122 ft | 417 kts | 290° |
| 2026-05-06 17:44 | 38.79711 | 20.22317 | 34122 ft | 417 kts | 290° |
| 2026-05-06 17:45 | 38.81608 | 20.15341 | 34123 ft | 417 kts | 290° |
| 2026-05-06 17:45 | 38.83511 | 20.08319 | 34120 ft | 416 kts | 290° |
| 2026-05-06 17:46 | 38.85400 | 20.01309 | 34117 ft | 415 kts | 290° |
| 2026-05-06 17:46 | 38.87288 | 19.94300 | 34119 ft | 415 kts | 290° |
| 2026-05-06 17:47 | 38.89168 | 19.87298 | 34114 ft | 415 kts | 290° |
| 2026-05-06 17:47 | 38.91047 | 19.80304 | 34115 ft | 414 kts | 290° |
| 2026-05-06 17:48 | 38.92912 | 19.73305 | 34120 ft | 413 kts | 290° |
| 2026-05-06 17:48 | 38.94766 | 19.66337 | 34118 ft | 412 kts | 290° |
| 2026-05-06 17:49 | 38.96604 | 19.59418 | 34115 ft | 411 kts | 290° |
| 2026-05-06 17:49 | 38.98441 | 19.52466 | 34105 ft | 410 kts | 290° |
| 2026-05-06 17:50 | 39.00273 | 19.45519 | 34106 ft | 410 kts | 290° |
| 2026-05-06 17:50 | 39.02105 | 19.38582 | 34103 ft | 409 kts | 290° |
| 2026-05-06 17:51 | 39.03928 | 19.31652 | 34101 ft | 409 kts | 290° |
| 2026-05-06 17:51 | 39.05742 | 19.24727 | 34097 ft | 408 kts | 290° |
| 2026-05-06 17:52 | 39.07546 | 19.17800 | 34092 ft | 408 kts | 290° |
| 2026-05-06 17:52 | 39.09345 | 19.10880 | 34094 ft | 408 kts | 290° |
| 2026-05-06 17:53 | 39.11148 | 19.03964 | 34098 ft | 407 kts | 289° |
| 2026-05-06 17:53 | 39.12949 | 18.97058 | 34092 ft | 407 kts | 289° |
| 2026-05-06 17:54 | 39.14736 | 18.90141 | 34093 ft | 406 kts | 289° |
| 2026-05-06 17:54 | 39.16506 | 18.83229 | 34089 ft | 406 kts | 289° |
| 2026-05-06 17:55 | 39.18265 | 18.76362 | 34089 ft | 406 kts | 289° |
| 2026-05-06 17:55 | 39.20028 | 18.69454 | 34084 ft | 405 kts | 289° |
| 2026-05-06 17:56 | 39.21792 | 18.62556 | 34084 ft | 405 kts | 289° |
| 2026-05-06 17:56 | 39.23557 | 18.55656 | 34077 ft | 405 kts | 289° |
| 2026-05-06 17:57 | 39.25315 | 18.48751 | 34077 ft | 405 kts | 289° |
| 2026-05-06 17:57 | 39.27064 | 18.41840 | 34069 ft | 405 kts | 288° |
| 2026-05-06 17:58 | 39.28811 | 18.34928 | 34063 ft | 406 kts | 288° |
| 2026-05-06 17:58 | 39.30561 | 18.27997 | 34060 ft | 406 kts | 288° |
| 2026-05-06 17:59 | 39.32304 | 18.21043 | 34059 ft | 407 kts | 288° |
| 2026-05-06 17:59 | 39.34036 | 18.14088 | 34057 ft | 407 kts | 288° |
| 2026-05-06 18:00 | 39.35769 | 18.07131 | 34058 ft | 407 kts | 288° |
| 2026-05-06 18:00 | 39.37513 | 18.00165 | 34058 ft | 407 kts | 288° |
| 2026-05-06 18:01 | 39.39247 | 17.93201 | 34055 ft | 407 kts | 287° |
| 2026-05-06 18:01 | 39.40960 | 17.86272 | 34048 ft | 407 kts | 287° |
| 2026-05-06 18:02 | 39.42681 | 17.79297 | 34053 ft | 407 kts | 287° |
| 2026-05-06 18:02 | 39.44401 | 17.72308 | 34044 ft | 407 kts | 287° |
| 2026-05-06 18:03 | 39.46115 | 17.65326 | 34046 ft | 407 kts | 287° |
| 2026-05-06 18:03 | 39.47823 | 17.58333 | 34039 ft | 407 kts | 287° |
| 2026-05-06 18:04 | 39.49523 | 17.51355 | 34041 ft | 407 kts | 287° |
| 2026-05-06 18:04 | 39.51212 | 17.44412 | 34039 ft | 407 kts | 287° |
| 2026-05-06 18:05 | 39.52906 | 17.37428 | 34051 ft | 407 kts | 286° |
| 2026-05-06 18:05 | 39.54598 | 17.30441 | 34050 ft | 406 kts | 286° |
| 2026-05-06 18:06 | 39.56286 | 17.23452 | 34053 ft | 406 kts | 286° |
| 2026-05-06 18:06 | 39.57969 | 17.16454 | 34058 ft | 406 kts | 286° |
| 2026-05-06 18:07 | 39.59635 | 17.09462 | 34054 ft | 406 kts | 285° |
| 2026-05-06 18:07 | 39.61309 | 17.02458 | 34070 ft | 406 kts | 285° |
| 2026-05-06 18:08 | 39.62980 | 16.95458 | 34066 ft | 407 kts | 285° |
| 2026-05-06 18:08 | 39.64653 | 16.88438 | 34081 ft | 407 kts | 285° |
| 2026-05-06 18:09 | 39.66319 | 16.81408 | 34076 ft | 407 kts | 285° |
| 2026-05-06 18:09 | 39.67969 | 16.74383 | 34089 ft | 407 kts | 285° |
| 2026-05-06 18:10 | 39.69622 | 16.67341 | 34098 ft | 408 kts | 285° |
| 2026-05-06 18:10 | 39.71273 | 16.60328 | 34064 ft | 409 kts | 285° |
| 2026-05-06 18:11 | 39.72653 | 16.54444 | 34060 ft | 410 kts | 285° |
| 2026-05-06 18:11 | 39.74578 | 16.46154 | 34060 ft | 411 kts | 285° |
| 2026-05-06 18:12 | 39.76232 | 16.39046 | 34063 ft | 411 kts | 285° |
| 2026-05-06 18:12 | 39.77882 | 16.31932 | 34073 ft | 411 kts | 284° |
| 2026-05-06 18:13 | 39.79526 | 16.24812 | 34082 ft | 410 kts | 284° |
| 2026-05-06 18:13 | 39.81159 | 16.17707 | 34074 ft | 409 kts | 284° |
| 2026-05-06 18:14 | 39.82774 | 16.10663 | 34077 ft | 409 kts | 284° |
| 2026-05-06 18:14 | 39.84396 | 16.03559 | 34067 ft | 409 kts | 284° |
| 2026-05-06 18:15 | 39.86018 | 15.96462 | 34077 ft | 409 kts | 284° |
| 2026-05-06 18:15 | 39.87640 | 15.89376 | 34071 ft | 407 kts | 284° |
| 2026-05-06 18:16 | 39.89241 | 15.82311 | 34072 ft | 407 kts | 284° |
| 2026-05-06 18:16 | 39.90833 | 15.75236 | 34059 ft | 406 kts | 284° |
| 2026-05-06 18:17 | 39.92424 | 15.68173 | 34054 ft | 406 kts | 284° |
| 2026-05-06 18:17 | 39.93997 | 15.61159 | 34044 ft | 406 kts | 283° |
| 2026-05-06 18:18 | 39.95576 | 15.54101 | 34032 ft | 406 kts | 283° |
| 2026-05-06 18:18 | 39.96904 | 15.48187 | 34023 ft | 405 kts | 283° |
| 2026-05-06 18:19 | 39.98466 | 15.41169 | 34023 ft | 405 kts | 283° |
| 2026-05-06 18:19 | 40.00025 | 15.34098 | 34022 ft | 405 kts | 283° |
| 2026-05-06 18:20 | 40.01585 | 15.27040 | 34043 ft | 405 kts | 282° |
| 2026-05-06 18:20 | 40.03154 | 15.19974 | 34035 ft | 405 kts | 282° |
| 2026-05-06 18:21 | 40.04714 | 15.12894 | 34023 ft | 405 kts | 282° |
| 2026-05-06 18:21 | 40.06262 | 15.05822 | 34020 ft | 405 kts | 282° |
| 2026-05-06 18:22 | 40.07808 | 14.98733 | 34018 ft | 405 kts | 282° |
| 2026-05-06 18:22 | 40.09346 | 14.91658 | 34026 ft | 406 kts | 282° |
| 2026-05-06 18:23 | 40.10883 | 14.84584 | 33995 ft | 408 kts | 282° |
| 2026-05-06 18:23 | 40.12429 | 14.77433 | 33989 ft | 410 kts | 281° |
| 2026-05-06 18:24 | 40.13974 | 14.70251 | 33990 ft | 411 kts | 282° |
| 2026-05-06 18:24 | 40.15525 | 14.63055 | 33999 ft | 412 kts | 282° |
| 2026-05-06 18:25 | 40.17069 | 14.55846 | 34003 ft | 412 kts | 281° |
| 2026-05-06 18:25 | 40.18608 | 14.48631 | 34013 ft | 412 kts | 281° |
| 2026-05-06 18:26 | 40.20144 | 14.41407 | 34015 ft | 412 kts | 281° |
| 2026-05-06 18:26 | 40.21676 | 14.34176 | 34020 ft | 413 kts | 281° |
| 2026-05-06 18:27 | 40.23206 | 14.26934 | 34022 ft | 413 kts | 281° |
| 2026-05-06 18:27 | 40.24732 | 14.19692 | 34037 ft | 413 kts | 281° |
| 2026-05-06 18:28 | 40.26254 | 14.12420 | 34032 ft | 415 kts | 281° |
| 2026-05-06 18:28 | 40.27779 | 14.05124 | 34030 ft | 415 kts | 280° |
| 2026-05-06 18:29 | 40.29287 | 13.97869 | 34036 ft | 415 kts | 280° |
| 2026-05-06 18:29 | 40.30805 | 13.90562 | 34030 ft | 416 kts | 280° |
| 2026-05-06 18:30 | 40.32319 | 13.83258 | 34044 ft | 416 kts | 280° |
| 2026-05-06 18:30 | 40.33829 | 13.75946 | 34036 ft | 415 kts | 280° |
| 2026-05-06 18:31 | 40.35328 | 13.68632 | 34030 ft | 415 kts | 280° |
| 2026-05-06 18:31 | 40.36824 | 13.61313 | 34035 ft | 415 kts | 280° |
| 2026-05-06 18:32 | 40.38312 | 13.53990 | 34032 ft | 415 kts | 280° |
| 2026-05-06 18:32 | 40.39801 | 13.46677 | 34056 ft | 415 kts | 280° |
| 2026-05-06 18:33 | 40.41283 | 13.39397 | 34038 ft | 415 kts | 280° |
| 2026-05-06 18:33 | 40.42758 | 13.32079 | 34036 ft | 414 kts | 280° |
| 2026-05-06 18:34 | 40.44229 | 13.24763 | 34034 ft | 414 kts | 280° |
| 2026-05-06 18:34 | 40.45695 | 13.17443 | 34034 ft | 414 kts | 280° |
| 2026-05-06 18:35 | 40.47153 | 13.10130 | 34051 ft | 414 kts | 279° |
| 2026-05-06 18:35 | 40.48607 | 13.02805 | 34045 ft | 414 kts | 279° |
| 2026-05-06 18:36 | 40.50063 | 12.95487 | 34038 ft | 414 kts | 279° |
| 2026-05-06 18:36 | 40.51501 | 12.88207 | 34036 ft | 414 kts | 279° |
| 2026-05-06 18:37 | 40.52942 | 12.80881 | 34035 ft | 414 kts | 279° |
| 2026-05-06 18:37 | 40.54381 | 12.73532 | 34045 ft | 414 kts | 279° |
| 2026-05-06 18:38 | 40.55818 | 12.66196 | 34038 ft | 415 kts | 279° |
| 2026-05-06 18:38 | 40.57249 | 12.58849 | 34033 ft | 415 kts | 278° |
| 2026-05-06 18:39 | 40.58677 | 12.51490 | 34026 ft | 415 kts | 279° |
| 2026-05-06 18:40 | 40.60816 | 12.40453 | 34044 ft | 415 kts | 278° |
| 2026-05-06 18:40 | 40.62222 | 12.33101 | 34031 ft | 414 kts | 278° |
| 2026-05-06 18:41 | 40.63616 | 12.25809 | 34027 ft | 413 kts | 278° |
| 2026-05-06 18:41 | 40.65019 | 12.18475 | 34022 ft | 413 kts | 278° |
| 2026-05-06 18:42 | 40.66415 | 12.11141 | 34023 ft | 413 kts | 278° |
| 2026-05-06 18:42 | 40.67800 | 12.03804 | 34036 ft | 412 kts | 278° |
| 2026-05-06 18:43 | 40.69179 | 11.96474 | 34034 ft | 412 kts | 278° |
| 2026-05-06 18:43 | 40.70556 | 11.89139 | 34026 ft | 411 kts | 278° |
| 2026-05-06 18:44 | 40.71923 | 11.81835 | 34021 ft | 411 kts | 278° |
| 2026-05-06 18:44 | 40.73280 | 11.74559 | 34013 ft | 410 kts | 278° |
| 2026-05-06 18:45 | 40.74641 | 11.67255 | 34036 ft | 410 kts | 277° |
| 2026-05-06 18:45 | 40.75995 | 11.59946 | 34025 ft | 410 kts | 277° |
| 2026-05-06 18:46 | 40.77336 | 11.52640 | 34025 ft | 410 kts | 277° |
| 2026-05-06 18:46 | 40.78682 | 11.45317 | 34012 ft | 411 kts | 277° |
| 2026-05-06 18:46 | 40.79355 | 11.41649 | 33888 ft | 411 kts | 277° |
| 2026-05-06 18:47 | 40.80024 | 11.37987 | 33613 ft | 410 kts | 277° |
| 2026-05-06 18:47 | 40.80690 | 11.34328 | 33342 ft | 409 kts | 277° |
| 2026-05-06 18:47 | 40.81350 | 11.30684 | 33078 ft | 408 kts | 277° |
| 2026-05-06 18:47 | 40.82008 | 11.27049 | 32829 ft | 406 kts | 277° |
| 2026-05-06 18:48 | 40.82613 | 11.23423 | 32561 ft | 401 kts | 272° |
| 2026-05-06 18:48 | 40.82833 | 11.19790 | 32299 ft | 392 kts | 264° |
| 2026-05-06 18:48 | 40.82683 | 11.16238 | 31892 ft | 385 kts | 261° |
| 2026-05-06 18:48 | 40.82482 | 11.12727 | 31424 ft | 381 kts | 261° |
| 2026-05-06 18:49 | 40.82284 | 11.09257 | 30958 ft | 378 kts | 261° |
| 2026-05-06 18:49 | 40.82087 | 11.05804 | 30505 ft | 375 kts | 261° |
| 2026-05-06 18:49 | 40.81892 | 11.02391 | 30035 ft | 372 kts | 262° |
| 2026-05-06 18:49 | 40.81699 | 10.99039 | 29556 ft | 369 kts | 262° |
| 2026-05-06 18:50 | 40.81508 | 10.95674 | 29116 ft | 365 kts | 262° |
| 2026-05-06 18:50 | 40.81321 | 10.92357 | 28681 ft | 361 kts | 262° |
| 2026-05-06 18:50 | 40.81134 | 10.89064 | 28255 ft | 358 kts | 262° |
| 2026-05-06 18:50 | 40.80950 | 10.85800 | 27832 ft | 355 kts | 262° |
| 2026-05-06 18:51 | 40.80765 | 10.82558 | 27419 ft | 352 kts | 262° |
| 2026-05-06 18:51 | 40.80578 | 10.79343 | 27020 ft | 350 kts | 262° |
| 2026-05-06 18:51 | 40.80391 | 10.76158 | 26620 ft | 347 kts | 262° |
| 2026-05-06 18:51 | 40.80203 | 10.72992 | 26240 ft | 344 kts | 262° |
| 2026-05-06 18:52 | 40.80013 | 10.69854 | 25861 ft | 341 kts | 263° |
| 2026-05-06 18:52 | 40.79830 | 10.66785 | 25490 ft | 339 kts | 263° |
| 2026-05-06 18:52 | 40.79645 | 10.63698 | 25120 ft | 336 kts | 263° |
| 2026-05-06 18:52 | 40.79460 | 10.60640 | 24755 ft | 333 kts | 263° |
| 2026-05-06 18:53 | 40.79276 | 10.57611 | 24390 ft | 330 kts | 263° |
| 2026-05-06 18:53 | 40.79095 | 10.54589 | 24022 ft | 329 kts | 264° |
| 2026-05-06 18:53 | 40.78912 | 10.51594 | 23653 ft | 327 kts | 264° |
| 2026-05-06 18:53 | 40.78728 | 10.48610 | 23237 ft | 325 kts | 264° |
| 2026-05-06 18:54 | 40.78544 | 10.45639 | 22849 ft | 323 kts | 264° |
| 2026-05-06 18:54 | 40.78360 | 10.42688 | 22469 ft | 322 kts | 264° |
| 2026-05-06 18:54 | 40.78178 | 10.39751 | 22076 ft | 321 kts | 264° |
| 2026-05-06 18:54 | 40.77996 | 10.36824 | 21693 ft | 319 kts | 264° |
| 2026-05-06 18:55 | 40.77815 | 10.33907 | 21303 ft | 318 kts | 264° |
| 2026-05-06 18:55 | 40.77639 | 10.31037 | 20917 ft | 317 kts | 264° |
| 2026-05-06 18:55 | 40.77459 | 10.28145 | 20532 ft | 316 kts | 263° |
| 2026-05-06 18:55 | 40.77277 | 10.25260 | 20121 ft | 315 kts | 263° |
| 2026-05-06 18:56 | 40.77096 | 10.22384 | 19720 ft | 315 kts | 263° |
| 2026-05-06 18:56 | 40.76912 | 10.19508 | 19339 ft | 314 kts | 263° |
| 2026-05-06 18:56 | 40.76727 | 10.16634 | 18938 ft | 314 kts | 263° |
| 2026-05-06 18:56 | 40.76540 | 10.13757 | 18534 ft | 315 kts | 263° |
| 2026-05-06 18:57 | 40.76354 | 10.10879 | 18093 ft | 316 kts | 263° |
| 2026-05-06 18:57 | 40.76167 | 10.07992 | 17655 ft | 315 kts | 263° |
| 2026-05-06 18:57 | 40.75983 | 10.05120 | 17241 ft | 315 kts | 263° |
| 2026-05-06 18:57 | 40.75796 | 10.02245 | 16825 ft | 314 kts | 263° |
| 2026-05-06 18:58 | 40.75608 | 9.99378 | 16411 ft | 314 kts | 263° |
| 2026-05-06 18:58 | 40.75417 | 9.96505 | 15985 ft | 314 kts | 263° |
| 2026-05-06 18:58 | 40.75348 | 9.93621 | 15564 ft | 316 kts | 273° |
| 2026-05-06 18:58 | 40.75784 | 9.90775 | 15130 ft | 319 kts | 287° |
| 2026-05-06 18:59 | 40.76743 | 9.88122 | 14692 ft | 323 kts | 301° |
| 2026-05-06 18:59 | 40.78065 | 9.85717 | 14243 ft | 325 kts | 305° |
| 2026-05-06 18:59 | 40.79414 | 9.83311 | 13785 ft | 327 kts | 305° |
| 2026-05-06 18:59 | 40.80745 | 9.80927 | 13417 ft | 324 kts | 304° |
| 2026-05-06 19:00 | 40.82059 | 9.78569 | 13282 ft | 314 kts | 304° |
| 2026-05-06 19:00 | 40.83334 | 9.76280 | 13147 ft | 304 kts | 304° |
| 2026-05-06 19:00 | 40.84399 | 9.73944 | 13015 ft | 292 kts | 288° |
| 2026-05-06 19:00 | 40.84719 | 9.72216 | 12927 ft | 284 kts | 274° |
| 2026-05-06 19:01 | 40.84377 | 9.68903 | 12713 ft | 272 kts | 246° |
| 2026-05-06 19:01 | 40.83424 | 9.66768 | 12550 ft | 270 kts | 235° |
| 2026-05-06 19:01 | 40.82356 | 9.64733 | 12350 ft | 269 kts | 235° |
| 2026-05-06 19:01 | 40.81293 | 9.62709 | 12155 ft | 268 kts | 236° |
| 2026-05-06 19:02 | 40.80231 | 9.60689 | 11959 ft | 267 kts | 236° |
| 2026-05-06 19:02 | 40.79176 | 9.58679 | 11764 ft | 266 kts | 236° |
| 2026-05-06 19:02 | 40.78126 | 9.56675 | 11580 ft | 265 kts | 236° |
| 2026-05-06 19:02 | 40.77079 | 9.54670 | 11395 ft | 264 kts | 236° |
| 2026-05-06 19:03 | 40.76040 | 9.52681 | 11207 ft | 263 kts | 236° |
| 2026-05-06 19:03 | 40.75002 | 9.50696 | 11028 ft | 262 kts | 236° |
| 2026-05-06 19:03 | 40.73965 | 9.48718 | 10839 ft | 262 kts | 236° |
| 2026-05-06 19:03 | 40.72928 | 9.46742 | 10658 ft | 262 kts | 236° |
| 2026-05-06 19:04 | 40.71894 | 9.44777 | 10481 ft | 260 kts | 236° |
| 2026-05-06 19:04 | 40.70863 | 9.42820 | 10295 ft | 259 kts | 236° |
| 2026-05-06 19:04 | 40.69836 | 9.40870 | 10122 ft | 259 kts | 236° |
| 2026-05-06 19:04 | 40.68822 | 9.38948 | 9935 ft | 258 kts | 236° |
| 2026-05-06 19:05 | 40.67797 | 9.37006 | 9743 ft | 258 kts | 236° |
| 2026-05-06 19:05 | 40.66775 | 9.35073 | 9555 ft | 257 kts | 236° |
| 2026-05-06 19:05 | 40.65756 | 9.33146 | 9381 ft | 254 kts | 236° |
| 2026-05-06 19:05 | 40.64760 | 9.31260 | 9194 ft | 249 kts | 236° |
| 2026-05-06 19:06 | 40.63782 | 9.29408 | 9036 ft | 245 kts | 236° |
| 2026-05-06 19:06 | 40.62812 | 9.27572 | 8843 ft | 244 kts | 236° |
| 2026-05-06 19:06 | 40.61845 | 9.25745 | 8688 ft | 243 kts | 236° |
| 2026-05-06 19:06 | 40.60879 | 9.23915 | 8517 ft | 243 kts | 236° |
| 2026-05-06 19:07 | 40.59916 | 9.22094 | 8345 ft | 243 kts | 235° |
| 2026-05-06 19:07 | 40.59265 | 9.20865 | 8212 ft | 242 kts | 235° |
| 2026-05-06 19:07 | 40.57990 | 9.18467 | 7980 ft | 241 kts | 235° |
| 2026-05-06 19:07 | 40.57062 | 9.16633 | 7783 ft | 240 kts | 244° |
| 2026-05-06 19:08 | 40.56747 | 9.15252 | 7672 ft | 239 kts | 265° |
| 2026-05-06 19:08 | 40.57031 | 9.13119 | 7485 ft | 241 kts | 296° |
| 2026-05-06 19:08 | 40.58145 | 9.11476 | 7299 ft | 244 kts | 324° |
| 2026-05-06 19:08 | 40.59551 | 9.10211 | 7106 ft | 246 kts | 323° |
| 2026-05-06 19:09 | 40.60951 | 9.08919 | 6912 ft | 245 kts | 323° |
| 2026-05-06 19:09 | 40.62338 | 9.07626 | 6717 ft | 244 kts | 323° |
| 2026-05-06 19:09 | 40.63814 | 9.06561 | 6513 ft | 243 kts | 346° |
| 2026-05-06 19:09 | 40.65467 | 9.06663 | 6329 ft | 238 kts | 22° |
| 2026-05-06 19:10 | 40.66757 | 9.07955 | 6166 ft | 235 kts | 55° |
| 2026-05-06 19:10 | 40.67639 | 9.09770 | 5980 ft | 236 kts | 58° |
| 2026-05-06 19:10 | 40.68550 | 9.11566 | 5803 ft | 236 kts | 57° |
| 2026-05-06 19:10 | 40.69478 | 9.13348 | 5640 ft | 235 kts | 56° |
| 2026-05-06 19:11 | 40.70404 | 9.15119 | 5472 ft | 235 kts | 56° |
| 2026-05-06 19:11 | 40.71329 | 9.16893 | 5310 ft | 234 kts | 57° |
| 2026-05-06 19:11 | 40.72249 | 9.18661 | 5144 ft | 233 kts | 55° |
| 2026-05-06 19:11 | 40.73254 | 9.20342 | 4979 ft | 233 kts | 53° |
| 2026-05-06 19:12 | 40.74209 | 9.22020 | 4822 ft | 231 kts | 56° |
| 2026-05-06 19:12 | 40.75135 | 9.23754 | 4644 ft | 231 kts | 56° |
| 2026-05-06 19:12 | 40.76049 | 9.25489 | 4485 ft | 230 kts | 56° |
| 2026-05-06 19:12 | 40.76965 | 9.27224 | 4325 ft | 231 kts | 56° |
| 2026-05-06 19:13 | 40.77882 | 9.28961 | 4163 ft | 230 kts | 56° |
| 2026-05-06 19:13 | 40.78795 | 9.30693 | 3998 ft | 229 kts | 55° |
| 2026-05-06 19:13 | 40.79708 | 9.32425 | 3839 ft | 230 kts | 56° |
| 2026-05-06 19:13 | 40.80621 | 9.34158 | 3523 ft | 230 kts | 56° |
| 2026-05-06 19:14 | 40.81535 | 9.35894 | 3184 ft | 231 kts | 55° |
| 2026-05-06 19:14 | 40.82449 | 9.37632 | 2799 ft | 226 kts | 55° |
| 2026-05-06 19:14 | 40.83317 | 9.39281 | 2471 ft | 212 kts | 56° |
| 2026-05-06 19:14 | 40.84140 | 9.40846 | 2152 ft | 202 kts | 55° |
| 2026-05-06 19:15 | 40.84905 | 9.42302 | 1865 ft | 184 kts | 54° |
| 2026-05-06 19:15 | 40.85589 | 9.43605 | 1575 ft | 163 kts | 54° |
| 2026-05-06 19:15 | 40.86208 | 9.44786 | 1321 ft | 152 kts | 54° |
| 2026-05-06 19:15 | 40.86801 | 9.45915 | 1092 ft | 148 kts | 54° |
| 2026-05-06 19:16 | 40.87385 | 9.47027 | 869 ft | 147 kts | 54° |
| 2026-05-06 19:16 | 40.87964 | 9.48131 | 644 ft | 146 kts | 54° |
| 2026-05-06 19:16 | 40.88545 | 9.49228 | 378 ft | 145 kts | 55° |
| 2026-05-06 19:16 | 40.89112 | 9.50310 | 135 ft | 144 kts | 56° |
| 2026-05-06 19:17 | 40.89670 | 9.51385 | 41 ft | 133 kts | 56° |
| 2026-05-06 19:17 | 40.90109 | 9.52228 | 34 ft | 87 kts | 55° |
| 2026-05-06 19:17 | 40.90326 | 9.52637 | 30 ft | 20 kts | 48° |
| 2026-05-06 19:17 | 40.90430 | 9.52675 | 30 ft | 16 kts | 324° |
| 2026-05-06 19:18 | 40.90453 | 9.52534 | 31 ft | 17 kts | 270° |
| 2026-05-06 19:18 | 40.90399 | 9.52395 | 32 ft | 18 kts | 237° |
| 2026-05-06 19:18 | 40.90326 | 9.52250 | 33 ft | 20 kts | 236° |
| 2026-05-06 19:18 | 40.90252 | 9.52105 | 34 ft | 14 kts | 235° |
| 2026-05-06 19:19 | 40.90193 | 9.51994 | 35 ft | 16 kts | 235° |
| 2026-05-06 19:19 | 40.90126 | 9.51866 | 36 ft | 18 kts | 235° |
| 2026-05-06 19:19 | 40.90052 | 9.51724 | 37 ft | 20 kts | 235° |
| 2026-05-06 19:19 | 40.89983 | 9.51564 | 38 ft | 19 kts | 274° |
| 2026-05-06 19:20 | 40.90071 | 9.51556 | 37 ft | 15 kts | 27° |
| 2026-05-06 19:20 | 40.90145 | 9.51554 | 37 ft | 7 kts | 327° |
| 2026-05-06 19:20 | 40.90167 | 9.51534 | 37 ft | 1 kts | 327° |
| 2026-05-06 19:20 | 40.90175 | 9.51528 | 35 ft | 0 kts | 326° |